Time;durP1;ratioP1;P1;durP2;ratioP2;P2;SDS_P1;SDS_P2;PMS_P1;PMS_P2;Temp;Humidity;BMP_temperature;BMP_pressure;BME280_temperature;BME280_humidity;BME280_pressure;Samples;Min_cycle;Max_cycle;Signal;HPM_P1;HPM_P2
2022/08/04 00:00:55;;;;;;;4.03;3.73;;;22.50;99.90;;;;;;5121387;28;20822;-81
2022/08/04 00:03:47;;;;;;;5.23;4.20;;;22.60;99.90;;;;;;5120243;28;20375;-78
2022/08/04 00:06:47;;;;;;;4.60;4.20;;;22.60;99.90;;;;;;5120808;28;20391;-79
2022/08/04 00:09:58;;;;;;;4.13;3.40;;;22.50;99.90;;;;;;5120573;28;20432;-80
2022/08/04 00:12:47;;;;;;;4.83;3.90;;;22.50;99.90;;;;;;5120232;28;20391;-80
2022/08/04 00:15:33;;;;;;;4.70;4.30;;;22.40;99.90;;;;;;5120534;28;20437;-80
2022/08/04 00:18:22;;;;;;;4.83;4.43;;;22.30;99.90;;;;;;5120010;28;20472;-78
2022/08/04 00:21:11;;;;;;;4.37;4.07;;;22.30;99.90;;;;;;5103364;28;20467;-79
2022/08/04 00:23:57;;;;;;;4.73;4.23;;;22.30;99.90;;;;;;5119302;28;20748;-81
2022/08/04 00:26:43;;;;;;;4.77;4.37;;;22.20;99.90;;;;;;5120481;28;20409;-80
2022/08/04 00:29:28;;;;;;;5.03;4.63;;;22.10;99.90;;;;;;5120212;28;20744;-80
2022/08/04 00:32:13;;;;;;;6.60;4.80;;;22.00;99.90;;;;;;5120778;28;20386;-80
2022/08/04 00:34:59;;;;;;;4.17;3.80;;;21.90;99.90;;;;;;5120489;28;20403;-80
2022/08/04 00:37:45;;;;;;;5.83;5.27;;;21.80;99.90;;;;;;5120437;28;20512;-80
2022/08/04 00:40:47;;;;;;;4.97;4.33;;;21.70;99.90;;;;;;5120358;28;20470;-80
2022/08/04 00:43:44;;;;;;;6.80;5.03;;;21.70;99.90;;;;;;5121191;28;20410;-79
2022/08/04 00:47:01;;;;;;;5.37;4.93;;;21.80;99.90;;;;;;5120770;28;20411;-81
2022/08/04 00:50:04;;;;;;;6.03;4.80;;;21.80;99.90;;;;;;5120057;28;20387;-81
2022/08/04 00:53:08;;;;;;;5.50;5.00;;;21.60;99.90;;;;;;5119933;28;20472;-81
2022/08/04 00:56:06;;;;;;;6.97;5.30;;;21.40;99.90;;;;;;5119491;28;20507;-81
2022/08/04 00:59:13;;;;;;;5.90;5.40;;;21.50;99.90;;;;;;5119545;28;20447;-81
2022/08/04 01:02:12;;;;;;;7.93;5.90;;;21.40;99.90;;;;;;5121540;28;20410;-81
2022/08/04 01:05:21;;;;;;;6.43;5.30;;;21.40;99.90;;;;;;5124300;28;20394;-81
2022/08/04 01:08:34;;;;;;;10.03;4.60;;;21.40;99.90;;;;;;5124692;28;20425;-81
2022/08/04 01:11:37;;;;;;;4.80;4.40;;;21.20;99.90;;;;;;5124429;28;20394;-81
2022/08/04 01:15:00;;;;;;;5.07;4.63;;;21.10;99.90;;;;;;5123712;28;20395;-81
2022/08/04 01:17:58;;;;;;;5.80;4.40;;;21.20;99.90;;;;;;5111121;28;20395;-81
2022/08/04 01:21:18;;;;;;;4.77;4.33;;;21.10;99.90;;;;;;5124424;28;20379;-81
2022/08/04 01:24:21;;;;;;;6.30;5.17;;;21.10;99.90;;;;;;5124169;28;20834;-81
2022/08/04 01:27:17;;;;;;;5.23;4.60;;;20.90;99.90;;;;;;5123814;28;20471;-81
2022/08/04 01:30:01;;;;;;;5.97;5.47;;;20.70;99.90;;;;;;5123935;28;20399;-81
2022/08/04 01:32:55;;;;;;;5.57;5.07;;;20.80;99.90;;;;;;5108131;28;20429;-81
2022/08/04 01:36:03;;;;;;;4.53;4.13;;;20.80;99.90;;;;;;5124090;28;20743;-81
2022/08/04 01:38:48;;;;;;;5.10;4.63;;;20.80;99.90;;;;;;5121318;28;20481;-81
2022/08/04 01:41:34;;;;;;;6.83;5.10;;;20.60;99.90;;;;;;5123858;28;20863;-81
2022/08/04 01:44:22;;;;;;;4.97;4.47;;;20.60;99.90;;;;;;5124230;28;20464;-81
2022/08/04 01:47:08;;;;;;;5.47;4.93;;;20.40;99.90;;;;;;5108623;28;20524;-81
2022/08/04 01:49:54;;;;;;;5.80;5.10;;;20.30;99.90;;;;;;5123626;28;20887;-81
2022/08/04 01:52:42;;;;;;;5.43;4.90;;;20.20;99.90;;;;;;5126233;28;20433;-79
2022/08/04 01:55:28;;;;;;;8.20;5.20;;;20.00;99.90;;;;;;5141900;28;20419;-80
2022/08/04 01:58:16;;;;;;;5.03;4.63;;;20.00;99.90;;;;;;5142125;27;20383;-80
2022/08/04 02:01:08;;;;;;;5.17;4.77;;;20.00;99.90;;;;;;5142029;28;20390;-80
2022/08/04 02:03:53;;;;;;;7.10;4.63;;;20.00;99.90;;;;;;5110076;28;20469;-81
2022/08/04 02:07:04;;;;;;;9.33;5.87;;;19.90;99.90;;;;;;5122947;28;20379;-80
2022/08/04 02:10:13;;;;;;;5.40;4.90;;;19.90;99.90;;;;;;5123010;28;20444;-81
2022/08/04 02:13:27;;;;;;;4.70;4.30;;;19.90;99.90;;;;;;5122527;28;20407;-80
2022/08/04 02:16:38;;;;;;;5.53;4.83;;;20.10;99.90;;;;;;5122588;28;20395;-80
2022/08/04 02:19:38;;;;;;;5.40;4.90;;;20.00;99.90;;;;;;5122272;28;20962;-80
2022/08/04 02:22:26;;;;;;;5.50;5.00;;;19.60;99.90;;;;;;5121739;28;20392;-80
2022/08/04 02:25:11;;;;;;;5.33;4.70;;;19.70;99.90;;;;;;5122206;28;20384;-81
2022/08/04 02:28:18;;;;;;;4.93;4.53;;;19.70;99.90;;;;;;5123320;28;20387;-80
2022/08/04 02:31:17;;;;;;;5.73;5.30;;;19.70;99.90;;;;;;5122764;28;20473;-81
2022/08/04 02:34:13;;;;;;;7.63;5.10;;;19.70;99.90;;;;;;5122902;28;20387;-81
2022/08/04 02:36:59;;;;;;;6.70;4.53;;;19.80;99.90;;;;;;5121995;28;20498;-81
2022/08/04 02:39:44;;;;;;;5.43;4.97;;;20.00;99.90;;;;;;5122315;28;20470;-81
2022/08/04 02:42:30;;;;;;;6.53;5.37;;;20.00;99.90;;;;;;5123422;28;20387;-81
2022/08/04 02:45:18;;;;;;;5.60;5.10;;;20.30;99.90;;;;;;5123232;28;20395;-81
2022/08/04 02:48:04;;;;;;;6.00;5.50;;;20.30;99.90;;;;;;5122397;28;20406;-81
2022/08/04 02:50:51;;;;;;;5.90;5.40;;;20.40;99.90;;;;;;5122691;28;20461;-81
2022/08/04 02:53:36;;;;;;;5.07;4.60;;;20.40;99.90;;;;;;5126121;28;20409;-78
2022/08/04 02:56:22;;;;;;;5.80;5.20;;;20.30;99.90;;;;;;5107183;28;20487;-80
2022/08/04 02:59:10;;;;;;;6.33;5.50;;;20.30;99.90;;;;;;5121548;28;20470;-81
2022/08/04 03:01:56;;;;;;;6.93;5.90;;;20.30;99.90;;;;;;5121547;28;20398;-81
2022/08/04 03:04:59;;;;;;;8.90;6.03;;;20.30;99.90;;;;;;5121571;28;20391;-80
2022/08/04 03:08:11;;;;;;;6.30;4.83;;;20.40;99.90;;;;;;5121719;28;20394;-80
2022/08/04 03:11:21;;;;;;;6.20;5.70;;;20.50;99.90;;;;;;5121335;28;20429;-81
2022/08/04 03:14:41;;;;;;;6.33;5.77;;;20.50;99.90;;;;;;5121561;28;20406;-81
2022/08/04 03:17:56;;;;;;;5.87;4.53;;;20.50;99.90;;;;;;5121206;28;20391;-81
2022/08/04 03:21:07;;;;;;;6.20;5.70;;;20.50;99.90;;;;;;5121789;28;20396;-82
2022/08/04 03:24:26;;;;;;;8.90;4.97;;;20.40;99.90;;;;;;5120565;28;20693;-81
2022/08/04 03:27:36;;;;;;;8.20;5.37;;;20.40;99.90;;;;;;5124705;28;20169;-81
2022/08/04 03:30:46;;;;;;;6.30;5.70;;;20.40;99.90;;;;;;5089357;28;20406;-81
2022/08/04 03:33:57;;;;;;;6.53;5.57;;;20.30;99.90;;;;;;5120888;28;20383;-81
2022/08/04 03:37:06;;;;;;;6.60;5.50;;;20.50;99.90;;;;;;5121514;28;20851;-81
2022/08/04 03:40:21;;;;;;;13.93;5.40;;;20.40;99.90;;;;;;5105418;28;20485;-80
2022/08/04 03:43:27;;;;;;;6.20;5.03;;;20.50;99.90;;;;;;5121507;28;20379;-81
2022/08/04 03:46:38;;;;;;;4.73;4.30;;;20.50;99.90;;;;;;5118038;28;20469;-81
2022/08/04 03:49:55;;;;;;;6.13;4.77;;;20.30;99.90;;;;;;5116304;28;20762;-81
2022/08/04 03:53:17;;;;;;;7.23;5.00;;;20.30;99.90;;;;;;5113701;28;20452;-81
2022/08/04 03:56:36;;;;;;;5.07;4.67;;;20.30;99.90;;;;;;5129280;27;20427;-81
2022/08/04 03:59:43;;;;;;;5.73;4.37;;;20.30;99.90;;;;;;5099693;28;21028;-81
2022/08/04 04:02:57;;;;;;;6.50;4.60;;;20.40;99.90;;;;;;5110409;28;20396;-80
2022/08/04 04:06:17;;;;;;;5.00;4.50;;;20.50;99.90;;;;;;5111406;28;20404;-81
2022/08/04 04:09:18;;;;;;;8.03;3.80;;;20.60;99.90;;;;;;5101661;28;20408;-80
2022/08/04 04:12:28;;;;;;;5.27;4.37;;;20.60;99.90;;;;;;5095934;28;20389;-80
2022/08/04 04:15:42;;;;;;;5.40;4.80;;;20.60;99.90;;;;;;5099922;28;20805;-80
2022/08/04 04:18:59;;;;;;;8.87;5.27;;;20.80;99.90;;;;;;5099254;28;20434;-80
2022/08/04 04:22:09;;;;;;;6.40;4.70;;;20.90;99.90;;;;;;5084605;28;20384;-80
2022/08/04 04:25:29;;;;;;;5.37;4.10;;;21.00;99.90;;;;;;5099233;28;20392;-80
2022/08/04 04:28:46;;;;;;;12.80;6.10;;;21.00;99.90;;;;;;5099399;28;20408;-80
2022/08/04 04:32:10;;;;;;;6.20;5.10;;;20.80;99.90;;;;;;5091371;28;20496;-80
2022/08/04 04:35:30;;;;;;;7.27;5.33;;;20.60;99.90;;;;;;5107894;28;20419;-80
2022/08/04 04:38:43;;;;;;;7.70;5.13;;;20.50;99.90;;;;;;5115789;27;20823;-80
2022/08/04 04:42:00;;;;;;;9.73;5.30;;;20.40;99.90;;;;;;5107055;28;20853;-81
2022/08/04 04:45:10;;;;;;;5.37;4.87;;;20.30;99.90;;;;;;5118665;28;20414;-81
2022/08/04 04:48:16;;;;;;;5.73;5.10;;;20.30;99.90;;;;;;5118375;28;20914;-80
2022/08/04 04:51:11;;;;;;;7.00;5.63;;;20.40;99.90;;;;;;5116859;28;20571;-81
2022/08/04 04:54:23;;;;;;;5.30;4.80;;;20.40;99.90;;;;;;5104860;28;20399;-80
2022/08/04 04:57:23;;;;;;;9.23;6.43;;;20.50;99.90;;;;;;5106484;28;20455;-80
2022/08/04 05:00:11;;;;;;;7.93;5.73;;;20.50;99.90;;;;;;5101157;28;20450;-82
2022/08/04 05:03:32;;;;;;;6.20;5.60;;;20.50;99.90;;;;;;5109684;28;20435;-81
2022/08/04 05:06:36;;;;;;;6.10;5.60;;;20.50;99.90;;;;;;5110225;28;20473;-84
2022/08/04 05:09:52;;;;;;;10.83;5.73;;;20.80;99.90;;;;;;5109345;28;20418;-81
2022/08/04 05:13:00;;;;;;;6.40;5.77;;;21.00;99.90;;;;;;5118035;28;20496;-81
2022/08/04 05:15:49;;;;;;;5.10;4.40;;;20.90;99.90;;;;;;5111049;28;20430;-82
2022/08/04 05:18:39;;;;;;;16.73;7.30;;;20.90;99.90;;;;;;5103785;28;20419;-81
2022/08/04 05:21:50;;;;;;;5.43;5.03;;;21.00;99.90;;;;;;5110587;28;20507;-82
2022/08/04 05:24:39;;;;;;;7.57;5.50;;;21.10;99.90;;;;;;5102366;28;20773;-81
2022/08/04 05:27:30;;;;;;;5.20;4.80;;;21.10;99.90;;;;;;5116772;28;20469;-81
2022/08/04 05:30:17;;;;;;;5.57;4.97;;;21.30;99.90;;;;;;5108404;28;20445;-81
2022/08/04 05:33:08;;;;;;;7.60;5.17;;;21.40;99.90;;;;;;5113994;28;20768;-81
2022/08/04 05:35:57;;;;;;;5.80;4.70;;;21.50;99.90;;;;;;5122414;28;20429;-81
2022/08/04 05:38:43;;;;;;;4.50;4.20;;;21.50;99.90;;;;;;5116607;28;20474;-82
2022/08/04 05:41:29;;;;;;;12.70;4.70;;;21.60;99.90;;;;;;5115985;28;20988;-81
2022/08/04 05:44:17;;;;;;;5.17;4.77;;;21.80;99.90;;;;;;5115004;28;20414;-81
2022/08/04 05:47:03;;;;;;;6.20;5.03;;;22.00;99.90;;;;;;5114173;28;20423;-81
2022/08/04 05:49:47;;;;;;;9.60;6.80;;;22.30;99.90;;;;;;5103785;28;20476;-81
2022/08/04 05:52:35;;;;;;;13.07;5.70;;;22.50;99.90;;;;;;5110612;28;20414;-81
2022/08/04 05:55:21;;;;;;;8.43;6.03;;;22.60;99.90;;;;;;5111830;28;20791;-81
2022/08/04 05:58:06;;;;;;;9.33;5.70;;;22.70;99.90;;;;;;5117666;27;20450;-81
2022/08/04 06:00:53;;;;;;;5.17;4.63;;;22.80;99.90;;;;;;5112039;27;20477;-81
2022/08/04 06:03:39;;;;;;;5.73;4.50;;;22.80;99.90;;;;;;5118845;27;20475;-82
2022/08/04 06:06:27;;;;;;;6.27;5.67;;;22.90;99.90;;;;;;5117732;27;20454;-80
2022/08/04 06:09:12;;;;;;;6.70;4.70;;;23.00;99.90;;;;;;5118186;27;20434;-81
2022/08/04 06:12:02;;;;;;;15.30;5.73;;;23.00;99.90;;;;;;5117293;27;20827;-81
2022/08/04 06:14:51;;;;;;;7.43;5.10;;;23.10;99.90;;;;;;5102477;27;20427;-82
2022/08/04 06:17:39;;;;;;;7.43;5.17;;;23.20;99.90;;;;;;5119275;27;20737;-81
2022/08/04 06:20:31;;;;;;;6.57;5.53;;;23.20;99.90;;;;;;5109971;27;20464;-81
2022/08/04 06:23:18;;;;;;;4.37;4.03;;;23.20;99.90;;;;;;5116824;27;20435;-80
2022/08/04 06:26:04;;;;;;;5.83;5.33;;;23.30;99.90;;;;;;5125274;27;20422;-80
2022/08/04 06:28:50;;;;;;;6.70;4.40;;;23.30;99.90;;;;;;5094825;28;20485;-82
2022/08/04 06:31:42;;;;;;;6.80;4.57;;;23.30;99.90;;;;;;5113760;28;20438;-80
2022/08/04 06:34:28;;;;;;;8.47;4.63;;;23.40;99.90;;;;;;5091765;28;20425;-80
2022/08/04 06:37:14;;;;;;;7.30;5.23;;;23.20;99.90;;;;;;5099934;28;20558;-80
2022/08/04 06:40:00;;;;;;;5.63;5.10;;;23.50;99.90;;;;;;5091953;28;20544;-80
2022/08/04 06:42:47;;;;;;;8.33;5.20;;;23.60;99.90;;;;;;5097719;28;20428;-79
2022/08/04 06:45:35;;;;;;;5.40;4.77;;;23.70;99.90;;;;;;5087820;28;20470;-80
2022/08/04 06:48:21;;;;;;;6.13;4.00;;;23.70;99.90;;;;;;5096567;28;20415;-79
2022/08/04 06:51:06;;;;;;;4.90;4.40;;;23.70;99.90;;;;;;5086580;28;20420;-80
2022/08/04 06:53:54;;;;;;;4.73;4.33;;;23.90;99.90;;;;;;5082493;28;20519;-80
2022/08/04 06:56:39;;;;;;;10.77;4.70;;;24.00;99.90;;;;;;5093033;28;20520;-80
2022/08/04 06:59:26;;;;;;;8.50;4.67;;;24.10;99.90;;;;;;5101873;28;20458;-80
2022/08/04 07:02:15;;;;;;;12.37;5.60;;;24.20;99.90;;;;;;5090025;28;20456;-80
2022/08/04 07:05:00;;;;;;;5.43;4.63;;;24.20;99.90;;;;;;5097969;28;21205;-80
2022/08/04 07:07:45;;;;;;;4.50;4.10;;;24.30;99.90;;;;;;5093791;28;20481;-79
2022/08/04 07:10:30;;;;;;;6.30;4.10;;;24.40;99.90;;;;;;5096334;28;20427;-81
2022/08/04 07:13:15;;;;;;;4.13;3.83;;;24.50;99.90;;;;;;5083837;28;20474;-80
2022/08/04 07:16:00;;;;;;;5.17;4.60;;;24.70;99.90;;;;;;5092632;28;20520;-80
2022/08/04 07:18:44;;;;;;;4.23;3.40;;;24.80;99.90;;;;;;5076284;28;20516;-80
2022/08/04 07:21:29;;;;;;;4.33;3.93;;;25.00;99.90;;;;;;5097292;28;20477;-80
2022/08/04 07:24:15;;;;;;;5.93;3.23;;;25.10;99.90;;;;;;5091858;28;20462;-80
2022/08/04 07:26:59;;;;;;;3.83;3.40;;;25.40;99.90;;;;;;5089474;28;20528;-80
2022/08/04 07:29:45;;;;;;;4.00;3.70;;;25.50;99.90;;;;;;5096714;28;20426;-81
2022/08/04 07:32:30;;;;;;;3.30;3.00;;;25.70;99.90;;;;;;5093225;28;20423;-78
2022/08/04 07:35:16;;;;;;;5.00;4.00;;;25.80;99.90;;;;;;5095496;28;20794;-81
2022/08/04 07:38:01;;;;;;;7.20;3.70;;;25.90;99.90;;;;;;5090477;28;20560;-80
2022/08/04 07:40:46;;;;;;;4.57;3.43;;;25.90;99.90;;;;;;5077334;28;20479;-80
2022/08/04 07:43:31;;;;;;;4.90;4.50;;;26.00;99.90;;;;;;5090227;28;20446;-79
2022/08/04 07:46:15;;;;;;;7.53;3.90;;;26.10;99.90;;;;;;5090653;27;20987;-79
2022/08/04 07:49:00;;;;;;;11.03;3.57;;;26.20;99.90;;;;;;5099768;28;20459;-81
2022/08/04 07:51:45;;;;;;;3.27;3.07;;;26.30;99.90;;;;;;5074551;28;20432;-77
2022/08/04 07:54:31;;;;;;;8.67;3.30;;;26.40;99.90;;;;;;5068627;28;20539;-80
2022/08/04 07:57:19;;;;;;;3.40;3.10;;;26.50;99.90;;;;;;5089184;28;20576;-79
2022/08/04 08:00:05;;;;;;;4.63;3.30;;;26.60;99.90;;;;;;5066284;28;22032;-80
2022/08/04 08:02:51;;;;;;;3.40;2.93;;;26.80;99.90;;;;;;5095877;28;20426;-80
2022/08/04 08:05:37;;;;;;;3.43;3.13;;;26.90;99.90;;;;;;5086084;28;20426;-81
2022/08/04 08:08:22;;;;;;;3.77;3.47;;;27.00;99.90;;;;;;5097390;28;20441;-79
2022/08/04 08:11:08;;;;;;;4.37;3.00;;;27.10;99.90;;;;;;5094301;28;20474;-80
2022/08/04 08:13:53;;;;;;;5.37;4.10;;;27.40;99.90;;;;;;5096870;28;20942;-80
2022/08/04 08:16:38;;;;;;;2.90;2.70;;;27.50;99.90;;;;;;5089873;28;21080;-80
2022/08/04 08:19:22;;;;;;;3.60;3.00;;;27.70;99.90;;;;;;5100863;28;20530;-80
2022/08/04 08:22:09;;;;;;;3.63;3.33;;;27.90;99.90;;;;;;5099958;28;20481;-80
2022/08/04 08:24:54;;;;;;;4.20;3.53;;;28.00;99.70;;;;;;5103775;28;20419;-79
2022/08/04 08:27:38;;;;;;;4.33;2.70;;;27.90;98.50;;;;;;5101964;28;20430;-82
2022/08/04 08:30:24;;;;;;;3.37;2.80;;;28.00;97.60;;;;;;5094992;28;20509;-79
2022/08/04 08:33:12;;;;;;;4.03;3.83;;;28.10;96.20;;;;;;5089378;28;20430;-81
2022/08/04 08:36:16;;;;;;;2.30;2.10;;;28.20;91.20;;;;;;5098060;28;20462;-81
2022/08/04 08:39:21;;;;;;;2.87;2.67;;;28.40;86.90;;;;;;5101417;28;20474;-82
2022/08/04 08:42:26;;;;;;;3.40;2.83;;;28.60;91.50;;;;;;5083977;28;20449;-82
2022/08/04 08:45:37;;;;;;;2.80;2.60;;;28.60;92.50;;;;;;5115537;28;20416;-81
2022/08/04 08:48:58;;;;;;;4.77;3.40;;;28.70;85.50;;;;;;5121619;28;20442;-82
2022/08/04 08:52:05;;;;;;;2.80;2.60;;;28.80;85.20;;;;;;5108946;28;20430;-79
2022/08/04 08:55:30;;;;;;;4.07;3.05;;;28.90;87.60;;;;;;5110793;28;20609;-81
2022/08/04 08:58:48;;;;;;;3.77;2.93;;;29.00;89.00;;;;;;5113720;28;20228;-80
2022/08/04 09:01:52;;;;;;;3.70;2.80;;;29.30;84.30;;;;;;5103050;28;20456;-81
2022/08/04 09:05:01;;;;;;;9.83;3.70;;;29.30;79.20;;;;;;5105533;28;20997;-82
2022/08/04 09:08:07;;;;;;;2.73;2.53;;;29.40;81.40;;;;;;5121727;28;20422;-81
2022/08/04 09:11:07;;;;;;;3.77;3.33;;;29.50;81.80;;;;;;5101426;28;20430;-80
2022/08/04 09:14:18;;;;;;;2.60;2.40;;;29.70;81.70;;;;;;5118837;28;20533;-81
2022/08/04 09:17:06;;;;;;;8.23;3.90;;;29.70;81.80;;;;;;5117481;28;20442;-83
2022/08/04 09:19:57;;;;;;;2.87;2.53;;;29.70;84.50;;;;;;5117302;28;20458;-81
2022/08/04 09:22:50;;;;;;;2.73;2.53;;;29.80;83.20;;;;;;5118973;28;20418;-81
2022/08/04 09:25:43;;;;;;;2.60;2.40;;;29.90;80.90;;;;;;5125384;27;20420;-79
2022/08/04 09:28:41;;;;;;;3.70;3.40;;;30.10;80.30;;;;;;5129505;27;20465;-82
2022/08/04 09:31:33;;;;;;;4.30;3.20;;;30.30;81.60;;;;;;5110057;28;20458;-81
2022/08/04 09:34:34;;;;;;;3.30;3.10;;;30.20;81.50;;;;;;5134769;27;20421;-77
2022/08/04 09:37:37;;;;;;;3.20;3.00;;;30.30;81.30;;;;;;5131085;27;20458;-81
2022/08/04 09:40:46;;;;;;;3.37;2.70;;;30.30;79.10;;;;;;5131562;27;20464;-79
2022/08/04 09:44:00;;;;;;;2.80;2.60;;;30.70;77.90;;;;;;5135782;27;20447;-78
2022/08/04 09:46:58;;;;;;;3.30;3.10;;;30.70;78.00;;;;;;5131935;27;20434;-80
2022/08/04 09:49:54;;;;;;;2.60;2.40;;;30.80;77.90;;;;;;5133029;27;20498;-81
2022/08/04 09:53:01;;;;;;;3.10;2.87;;;30.90;76.40;;;;;;5092333;27;20542;-81
2022/08/04 09:55:57;;;;;;;3.27;2.83;;;30.90;76.10;;;;;;5125205;27;20453;-84
2022/08/04 09:59:09;;;;;;;2.70;2.53;;;31.00;75.50;;;;;;5113971;27;20478;-82
2022/08/04 10:01:58;;;;;;;4.27;2.87;;;31.10;74.40;;;;;;5099665;28;20538;-83
2022/08/04 10:04:44;;;;;;;3.40;3.10;;;31.20;77.50;;;;;;5094260;27;20533;-82
2022/08/04 10:07:47;;;;;;;3.30;3.07;;;31.30;73.00;;;;;;5112239;27;20496;-82
2022/08/04 10:10:40;;;;;;;4.27;3.43;;;31.30;72.20;;;;;;5101589;28;20434;-83
2022/08/04 10:13:40;;;;;;;5.10;2.47;;;31.40;72.50;;;;;;5114798;27;20496;-81
2022/08/04 10:16:46;;;;;;;2.90;2.70;;;31.50;70.40;;;;;;5114052;27;20437;-81
2022/08/04 10:19:36;;;;;;;2.77;2.57;;;31.50;69.40;;;;;;5109375;27;20457;-81
2022/08/04 10:22:33;;;;;;;3.60;3.30;;;31.70;68.70;;;;;;5117536;27;20519;-82
2022/08/04 10:25:32;;;;;;;4.57;3.10;;;31.80;69.30;;;;;;5091613;27;20430;-82
2022/08/04 10:28:21;;;;;;;4.00;2.93;;;32.00;69.00;;;;;;5097842;27;20913;-80
2022/08/04 10:31:09;;;;;;;3.20;3.00;;;32.10;69.40;;;;;;5094653;27;20910;-81
2022/08/04 10:34:04;;;;;;;3.33;2.80;;;32.10;67.30;;;;;;5099387;27;20425;-79
2022/08/04 10:37:18;;;;;;;3.80;2.77;;;32.10;67.70;;;;;;5113055;27;20510;-81
2022/08/04 10:43:39;;;;;;;2.80;2.60;;;32.30;65.90;;;;;;5113366;27;20433;-81
2022/08/04 10:46:31;;;;;;;3.50;2.90;;;32.60;65.20;;;;;;5098890;27;20985;-79
2022/08/04 10:49:31;;;;;;;3.00;2.80;;;32.80;65.90;;;;;;5083947;28;20487;-79
2022/08/04 10:52:26;;;;;;;3.20;2.90;;;32.80;63.70;;;;;;5110788;28;20430;-82
2022/08/04 10:55:37;;;;;;;2.97;2.77;;;32.70;63.40;;;;;;5120321;27;20499;-81
2022/08/04 10:58:28;;;;;;;3.50;2.43;;;32.70;64.40;;;;;;5114553;27;20458;-84
2022/08/04 11:01:22;;;;;;;2.50;2.40;;;32.70;63.20;;;;;;5111259;28;20438;-80
2022/08/04 11:04:31;;;;;;;4.53;4.23;;;32.70;63.20;;;;;;5092513;28;20447;-80
2022/08/04 11:07:17;;;;;;;2.93;2.73;;;33.00;60.90;;;;;;5109524;28;20212;-82
2022/08/04 11:10:01;;;;;;;3.20;3.00;;;33.10;60.20;;;;;;5100074;28;20434;-80
2022/08/04 11:12:52;;;;;;;3.40;3.03;;;33.30;60.00;;;;;;5099186;27;20518;-82
2022/08/04 11:15:44;;;;;;;3.30;3.00;;;33.20;60.30;;;;;;5109095;28;20168;-80
2022/08/04 11:18:46;;;;;;;3.30;3.00;;;33.40;59.70;;;;;;5111490;27;20266;-81
2022/08/04 11:21:36;;;;;;;2.90;2.63;;;33.50;59.40;;;;;;5125585;28;20175;-82
2022/08/04 11:24:30;;;;;;;3.42;3.08;;;33.80;58.60;;;;;;5116737;27;20644;-82
2022/08/04 11:27:22;;;;;;;2.70;2.50;;;33.80;58.80;;;;;;5113180;27;20334;-81
2022/08/04 11:30:09;;;;;;;2.72;2.53;;;33.80;58.10;;;;;;5117960;27;20314;-80
2022/08/04 11:33:19;;;;;;;2.90;2.70;;;34.30;57.50;;;;;;5119371;27;20200;-80
2022/08/04 11:36:19;;;;;;;4.68;3.55;;;34.60;56.50;;;;;;5111580;27;20190;-81
2022/08/04 11:39:38;;;;;;;3.10;2.90;;;34.30;57.40;;;;;;5096090;27;20670;-82
2022/08/04 11:42:37;;;;;;;3.00;2.80;;;34.30;57.10;;;;;;5120094;27;20229;-82
2022/08/04 11:45:36;;;;;;;3.03;2.83;;;34.40;56.60;;;;;;5107664;27;20699;-80
2022/08/04 11:48:31;;;;;;;3.10;2.90;;;34.40;56.70;;;;;;5118292;27;20176;-80
2022/08/04 11:51:17;;;;;;;3.22;2.50;;;34.60;56.60;;;;;;5117293;27;20294;-82
2022/08/04 11:54:02;;;;;;;4.55;3.17;;;34.80;54.50;;;;;;5092937;28;20188;-81
2022/08/04 11:56:47;;;;;;;3.70;3.40;;;34.80;55.00;;;;;;5111215;27;20283;-82
2022/08/04 11:59:34;;;;;;;4.45;3.00;;;35.30;54.40;;;;;;5109692;27;20215;-80
2022/08/04 12:02:40;;;;;;;2.78;2.58;;;35.60;53.80;;;;;;5097724;28;20215;-82
2022/08/04 12:05:30;;;;;;;3.30;3.00;;;36.40;52.70;;;;;;5108473;27;20269;-82
2022/08/04 12:08:40;;;;;;;4.88;3.25;;;36.20;53.20;;;;;;5113902;27;20183;-83
2022/08/04 12:11:53;;;;;;;3.50;3.17;;;36.20;53.90;;;;;;5128160;27;20183;-81
2022/08/04 12:14:57;;;;;;;3.47;3.20;;;35.80;53.40;;;;;;5115841;27;20245;-81
2022/08/04 12:17:50;;;;;;;3.30;3.00;;;35.60;55.10;;;;;;5113683;27;20679;-78
2022/08/04 12:20:42;;;;;;;3.15;2.95;;;35.60;54.00;;;;;;5109477;27;20235;-82
2022/08/04 12:23:34;;;;;;;3.42;3.13;;;36.00;53.50;;;;;;5116893;27;20203;-82
2022/08/04 12:26:25;;;;;;;3.30;3.10;;;37.20;51.90;;;;;;5104096;27;20176;-82
2022/08/04 12:29:15;;;;;;;3.45;2.75;;;37.60;51.60;;;;;;5103597;28;20200;-83
2022/08/04 12:32:07;;;;;;;3.30;3.10;;;36.80;51.30;;;;;;5115936;27;20180;-82
2022/08/04 12:35:20;;;;;;;3.20;3.00;;;37.30;50.00;;;;;;5102587;28;20173;-82
2022/08/04 12:38:10;;;;;;;2.88;2.67;;;36.40;49.60;;;;;;5117841;28;20528;-82
2022/08/04 12:40:58;;;;;;;2.97;2.78;;;37.30;50.00;;;;;;5120607;28;20243;-83
2022/08/04 12:43:46;;;;;;;3.60;3.08;;;36.90;49.90;;;;;;5112644;28;20195;-81
2022/08/04 12:46:31;;;;;;;3.17;2.97;;;37.00;49.40;;;;;;5116701;28;20221;-81
2022/08/04 12:49:17;;;;;;;3.15;2.85;;;37.90;48.20;;;;;;5111067;28;20180;-80
2022/08/04 12:52:07;;;;;;;3.20;2.90;;;36.60;49.80;;;;;;5117648;28;20168;-80
2022/08/04 12:54:57;;;;;;;2.95;2.75;;;37.00;51.20;;;;;;5081287;28;20258;-80
2022/08/04 12:57:43;;;;;;;3.03;2.83;;;36.80;49.00;;;;;;5101841;27;20206;-80
2022/08/04 13:00:34;;;;;;;14.23;13.35;;;38.00;48.10;;;;;;5109902;27;20253;-81
2022/08/04 13:03:22;;;;;;;3.67;3.28;;;37.30;48.40;;;;;;5109184;27;20181;-82
2022/08/04 13:06:11;;;;;;;3.88;3.00;;;37.30;48.60;;;;;;5115778;27;20179;-80
2022/08/04 13:09:04;;;;;;;3.20;3.00;;;36.50;49.20;;;;;;5121187;28;20199;-81
2022/08/04 13:11:52;;;;;;;3.65;3.40;;;36.50;50.90;;;;;;5115374;27;20188;-82
2022/08/04 13:14:43;;;;;;;6.25;3.40;;;36.90;49.40;;;;;;5117907;27;20280;-80
2022/08/04 13:17:44;;;;;;;3.50;3.30;;;36.60;49.40;;;;;;5113189;28;20629;-82
2022/08/04 13:20:32;;;;;;;5.30;5.00;;;36.60;48.90;;;;;;5110431;27;20269;-82
2022/08/04 13:23:18;;;;;;;3.30;3.10;;;37.30;50.30;;;;;;5091984;28;20185;-82
2022/08/04 13:26:05;;;;;;;3.40;3.20;;;37.10;49.40;;;;;;5121072;27;20172;-83
2022/08/04 13:28:52;;;;;;;2.42;2.28;;;37.30;48.40;;;;;;5115787;27;20527;-80
2022/08/04 13:31:42;;;;;;;6.15;3.50;;;38.10;48.50;;;;;;5117135;27;20264;-83
2022/08/04 13:34:32;;;;;;;4.35;2.88;;;37.60;47.50;;;;;;5105955;27;20175;-83
2022/08/04 13:37:19;;;;;;;3.35;3.15;;;37.30;47.50;;;;;;5094935;28;20268;-83
2022/08/04 13:40:08;;;;;;;3.13;2.90;;;38.30;46.50;;;;;;5120877;27;20262;-81
2022/08/04 13:42:54;;;;;;;2.60;2.40;;;38.50;46.80;;;;;;5121699;27;20200;-83
2022/08/04 13:45:40;;;;;;;4.00;2.50;;;39.50;45.00;;;;;;5124475;27;20225;-82
2022/08/04 13:48:25;;;;;;;3.00;2.88;;;39.30;44.50;;;;;;5109331;27;20192;-83
2022/08/04 13:51:11;;;;;;;2.45;2.25;;;38.60;46.70;;;;;;5123231;27;20187;-83
2022/08/04 13:54:04;;;;;;;3.38;3.08;;;38.20;45.50;;;;;;5126069;27;20262;-80
2022/08/04 13:56:59;;;;;;;2.55;2.45;;;38.40;44.80;;;;;;5038754;27;20345;-81
2022/08/04 13:59:52;;;;;;;2.60;2.50;;;38.90;44.60;;;;;;5099846;27;20224;-82
2022/08/04 14:02:58;;;;;;;2.53;2.42;;;38.30;44.90;;;;;;5101349;28;20177;-79
2022/08/04 14:05:45;;;;;;;2.80;2.60;;;37.70;45.30;;;;;;5102793;28;20215;-83
2022/08/04 14:08:42;;;;;;;3.67;3.45;;;37.20;45.50;;;;;;5098671;27;20192;-80
2022/08/04 14:11:38;;;;;;;2.90;2.70;;;37.90;45.20;;;;;;5102994;28;20521;-81
2022/08/04 14:14:27;;;;;;;3.58;3.03;;;38.80;44.60;;;;;;5099715;28;20254;-82
2022/08/04 14:17:16;;;;;;;3.17;2.80;;;39.30;43.50;;;;;;5067488;28;20184;-81
2022/08/04 14:20:03;;;;;;;2.10;2.00;;;39.40;44.30;;;;;;5085544;28;20202;-81
2022/08/04 14:22:48;;;;;;;2.58;2.47;;;39.50;43.10;;;;;;5083597;28;20227;-80
2022/08/04 14:25:34;;;;;;;2.50;2.30;;;40.00;44.40;;;;;;5040228;28;20292;-81
2022/08/04 14:28:50;;;;;;;5.80;3.10;;;39.80;44.10;;;;;;5004869;28;20212;-82
2022/08/04 14:31:36;;;;;;;2.83;2.63;;;38.00;45.20;;;;;;4997060;28;20284;-81
2022/08/04 14:34:45;;;;;;;2.92;2.67;;;37.80;44.90;;;;;;4992154;28;20200;-83
2022/08/04 14:37:30;;;;;;;3.63;2.70;;;38.10;44.30;;;;;;4980959;28;20252;-81
2022/08/04 14:40:23;;;;;;;3.38;2.53;;;38.90;45.90;;;;;;4972693;28;20676;-80
2022/08/04 14:43:09;;;;;;;2.83;2.63;;;38.00;44.30;;;;;;4971656;28;20198;-81
2022/08/04 14:46:04;;;;;;;2.78;2.58;;;37.90;43.90;;;;;;4974249;28;20638;-81
2022/08/04 14:49:04;;;;;;;2.78;2.58;;;37.50;48.30;;;;;;4986727;28;20277;-81
2022/08/04 14:51:55;;;;;;;2.75;2.55;;;37.30;45.40;;;;;;4996855;28;20184;-82
2022/08/04 14:54:40;;;;;;;3.17;2.88;;;37.00;44.90;;;;;;4986015;28;20212;-81
2022/08/04 14:57:24;;;;;;;3.53;3.05;;;37.70;45.50;;;;;;4990026;28;20241;-79
2022/08/04 15:00:10;;;;;;;2.78;2.58;;;37.10;47.40;;;;;;5004294;28;20296;-80
2022/08/04 15:03:02;;;;;;;4.57;3.05;;;37.00;45.60;;;;;;4996014;28;20260;-81
2022/08/04 15:05:47;;;;;;;2.90;2.70;;;37.60;44.60;;;;;;5003410;28;20207;-80
2022/08/04 15:08:32;;;;;;;2.50;2.38;;;37.50;45.20;;;;;;5012804;28;20219;-79
2022/08/04 15:11:18;;;;;;;2.85;2.65;;;37.40;45.10;;;;;;5016894;28;20297;-81
2022/08/04 15:14:04;;;;;;;3.60;3.30;;;37.90;44.80;;;;;;5013983;28;20200;-83